Sunday, February 25, 2018, 3:32 AM GMT
Back to Local

CYHZ, Halifax International Airport

Location: , , Canada Lat: 44.883
Local Time: 3:32 AM GMT ( 3:32 GMT) Lon: -63.5
Time Zone: GMT Elev: 475 ft

Show me the last for .
Show Decoded

2018-02-25 03:00 METAR CYHZ 250300Z 32010KT 15SM FEW260 M01/M06 A3014 RMK CI1 SLP213 =
2018-02-25 02:00 METAR CYHZ 250200Z 32012KT 15SM SCT260 M00/M05 A3010 RMK CI3 SLP201 =
2018-02-25 01:00 METAR CYHZ 250100Z 33013KT 15SM SCT250 00/M05 A3006 RMK CI3 SLP188 =
2018-02-25 00:00 METAR CYHZ 250000Z 33009KT 15SM BKN250 01/M04 A3003 RMK CI5 SLP176 =
2018-02-24 23:00 METAR CYHZ 242300Z 32011G17KT 15SM SCT250 02/M03 A2998 RMK CI3 SLP160 =
2018-02-24 22:00 METAR CYHZ 242200Z 32015KT 15SM FEW048 SCT250 03/M03 A2996 RMK SC2CI2 SLP152 =
2018-02-24 21:00 METAR CYHZ 242100Z 31013G22KT 15SM SCT042 BKN250 04/M02 A2991 RMK SC4CI3 SLP136
                 =
2018-02-24 20:00 METAR CYHZ 242000Z 31016G24KT 15SM SCT038 BKN250 04/M01 A2988 RMK SC3CI4 PRESRR
                 SLP125 =
2018-02-24 19:00 METAR CYHZ 241900Z 31017G32KT 15SM BKN040 BKN280 05/M02 A2985 RMK SC7CI1 CI TR
                 CU ASOCTD SLP114 =
2018-02-24 18:00 METAR CYHZ 241800Z 31019G27KT 15SM BKN039 04/M02 A2983 RMK SC7 SLP108 =
2018-02-24 17:00 METAR CYHZ 241700Z 32017G29KT 15SM SCT025 BKN045 BKN280 03/02 A2983 RMK
                 CU3SC3CI1 DIST SH SE SLP111 =
2018-02-24 16:00 METAR CYHZ 241600Z 31020G29KT 15SM BKN025 BKN045 BKN280 04/01 A2981 RMK
                 CU5SC2CI1 CI TR SLP103 =
2018-02-24 15:00 METAR CYHZ 241500Z 31020G26KT 15SM OVC016 03/03 A2980 RMK SC8 SLP100 =
2018-02-24 14:34 METAR CYHZ 241434Z 30014G24KT 15SM BKN015 04/03 A2980 RMK SC7 SLP100 =
2018-02-24 14:00 METAR CYHZ 241400Z 30020G27KT 15SM BKN010 BKN045 03/03 A2979 RMK SC7SC1 SC TR
                 SLP097 =
2018-02-24 13:00 METAR CYHZ 241300Z 29016KT 4SM BR OVC005 03/03 A2979 RMK ST8 CIG VRB 3-7 SLP095
                 =
2018-02-24 12:47 METAR CYHZ 241247Z 29015KT 8SM OVC005 02/02 A2978 RMK ST8 SLP093 =
2018-02-24 12:18 METAR CYHZ 241218Z 29011KT 15SM OVC004 02/02 A2978 RMK ST8 CIG VRB 3-5 SLP094 =
2018-02-24 12:00 METAR CYHZ 241200Z 27009KT 12SM VCFG OVC006 01/01 A2977 RMK ST8 FG BANK W OVR LK
                 SLP091 =
2018-02-24 11:32 METAR CYHZ 241132Z 26009KT 8SM VCFG FEW003 BKN009 OVC035 01/01 A2978 RMK
                 SF1SF5SC2 FG BANK W OVR LK SLP093 =
2018-02-24 11:21 METAR CYHZ 241121Z 26008KT 4SM BR SCT002 BKN009 OVC035 01/01 A2978 RMK SF4SF2SC2
                 SLP094 =
2018-02-24 11:10 METAR CYHZ 241110Z 26006KT 2 1/2SM BR OVC002 01/01 A2979 RMK ST8 SLP096 =
2018-02-24 11:00 METAR CYHZ 241100Z 25005KT 1/2SM R23/P6000FT/D R14/P6000FT/N FG OVC004 01/01
                 A2979 RMK FG6SF2 SLP097 =
2018-02-24 10:41 METAR CYHZ 241041Z 21005KT 1/2SM R23/P6000FT/D R14/P6000FT/N FG VV005 01/01
                 A2979 RMK FG8 SLP097 =
2018-02-24 10:32 METAR CYHZ 241032Z 21005KT 3/4SM R23/P6000FT/D R14/P6000FT/N BR OVC004 01/01
                 A2979 RMK FG5SF3 SLP098 =
2018-02-24 10:26 METAR CYHZ 241026Z 21005KT 1 1/2SM -DZ BR BKN004 OVC012 01/01 A2980 RMK SF6SC2
                 SLP099 =
2018-02-24 10:00 METAR CYHZ 241000Z 20006KT 170V310 2SM -DZ BR BKN003 OVC014 01/01 A2981 RMK
                 SF5SC3 SLP103 =
2018-02-24 09:48 METAR CYHZ 240948Z 17007KT 170V260 2 1/2SM -DZ BR BKN003 OVC014 01/01 A2982 RMK
                 ST6SC2 SLP104 =
2018-02-24 09:00 METAR CYHZ 240900Z 17009KT 1 1/2SM -DZ BR OVC004 00/00 A2984 RMK ST8 SLP112 =
2018-02-24 08:16 METAR CYHZ 240816Z 17010KT 1 1/2SM -DZ OVC004 00/00 A2987 RMK ST8 PRESFR SLP124
                 =
2018-02-24 08:00 METAR CYHZ 240800Z 17009KT 2SM -FZDZ OVC004 00/00 A2989 RMK ST8 PRESFR SLP130 =
2018-02-24 07:54 METAR CYHZ 240754Z 18010KT 2SM -FZDZ OVC004 00/00 A2990 RMK ST8 SLP133 =
2018-02-24 07:19 METAR CYHZ 240719Z 18011KT 4SM -FZDZ OVC004 M00/M00 A2993 RMK ST8 PRESFR SLP144
                 =
2018-02-24 07:00 METAR CYHZ 240700Z 18010G16KT 2SM -FZDZ -SN OVC002 M01/M01 A2996 RMK ST8 PRESFR
                 SLP152 =
2018-02-24 06:20 METAR CYHZ 240620Z 18009KT 2SM -FZDZ -SN OVC003 M02/M02 A3001 RMK ST8 PRESFR
                 SLP171 =
2018-02-24 06:00 METAR CYHZ 240600Z 18008KT 2SM -FZDZ -SN SCT006 BKN012 OVC036 M02/M02 A3003 RMK
                 SF4ST3SC1 /S01/ SLP179 =
2018-02-24 05:38 METAR CYHZ 240538Z 18010KT 2SM -FZDZ -SN SCT004 BKN008 OVC035 M03/M03 A3005 RMK
                 SF3ST3SC2 SLP184 =
2018-02-24 05:19 METAR CYHZ 240519Z 18009KT 2SM -FZDZ -SN OVC009 M03/M04 A3006 RMK ST8 PRESFR
                 SLP190 =
2018-02-24 05:00 METAR CYHZ 240500Z 18009KT 2SM -FZDZ -SN OVC011 M04/M04 A3009 RMK ST8 PRESFR
                 SLP197 =
2018-02-24 04:56 METAR CYHZ 240456Z 18007KT 2SM -FZDZ -SN OVC011 M04/M04 A3009 RMK ST8 PRESFR
                 SLP199 =
2018-02-24 04:08 METAR CYHZ 240408Z 19012G19KT 3SM -SN BKN010 OVC035 M03/M07 A3013 RMK SC6SC2
                 SLP212 =
2018-02-24 04:00 METAR CYHZ 240400Z 19011G20KT 7SM -SN BKN037 OVC070 M03/M07 A3014 RMK SC5AC3
                 SLP215 =

Support USWX by starting your Amazon purchase here.